Zakopane, Poland

1:03 PM CEST on August 27, 2014 (GMT +0200)
IPOPRADT1 | Change Station
CLOSE
Current Station
Personal Weather Station
Location: Tatranska Lomnica, Slovakia
Elevation: 2840 ft
Nearby Weather Stations

Elev 2840 ft 49.17 °N, 20.28 °E | Updated 1 minute ago

Rain
Rain
52.2 °F
Feels Like 52.2 °F
N
5.1
Wind Variable Wind from ENE

Today
High -- | Low -- °F
--% Chance of Precip.
Yesterday
High -- | Low -- °F
Precip. -- in
5:48 AM 7:33 PM
Waxing Crescent, 3% visible
Pressure 29.83 in
Visibility 6.2 miles
Clouds Scattered Clouds 900 ft
Mostly Cloudy 3300 ft
Dew Point 51 °F
Humidity 95%
Rainfall -999.00 in
Snow Depth Not available.
UV 4 out of 12
Pollen Not available.
Air Quality Not available.
Flu Activity Not available.
METAR LZTT 271100Z 06010KT 020V090 9999 SCT009 BKN033 12/11 Q1010 NOSIG

More Conditions Fewer Conditions

Pressure 29.83 in
Visibility 6.2 miles
Clouds Scattered Clouds 900 ft
Mostly Cloudy 3300 ft
Dew Point 51 °F
Humidity 95%
Rainfall -999.00 in
Snow Depth Not available.
UV 4 out of 12
Pollen Not available.
Air Quality Not available.
Flu Activity Not available.
METAR LZTT 271100Z 06010KT 020V090 9999 SCT009 BKN033 12/11 Q1010 NOSIG

More Conditions Fewer Conditions

10-Day Weather Forecast

Almanac

Astronomy

Aug. 27, 2014 Rise Set
Actual Time 5:48 AM CEST 7:33 PM CEST
Civil Twilight 5:14 AM CEST 8:07 PM CEST
Nautical Twilight 4:33 AM CEST 8:48 PM CEST
Astronomical Twilight 3:47 AM CEST 9:34 PM CEST
Moon 7:40 AM CEST 8:01 PM CEST
Length of Visible Light 14h 52m
Length of Day
13h 45m
Tomorrow will be 3m 28s shorter.
Waxing Crescent, 3% of the Moon is Illuminated
Today
Waxing Crescent
Sep 2
First Quarter
Sep 8
Full
Sep 15
Last Quarter
Sep 24
New

Yesterday's Extremes

Country Highs Country Lows

Community

WunderPhotos

Upload Photos

1,747,667 photos uploaded!

Nearby

Snow Depth

Not available.

Earthquake Activity

City Distance Mag. Time & Date
No recent earthquake activity has been reported nearby.
Minimum magnitude displayed is 2.5.

Coastal Water Temperatures

Place Temperature
No Stations Reporting

Nearby Weather Stations